Mountain Home Air Force Base
KMUO : now visible

Airfield :











YOU CAN JOIN US ON...

 
LOGIN :

Register | Disclaimer

   EN    FR    IT 

 









Legend :    VFR   Marginal VFR   IFR   Intensive IFR   Very Intensive IFR
Visi :
Ceiling :
>= 8 km
>= 3000ft
5 to 8 km
1000 to 3000 ft
1500m to 5 km
500 to 1000 ft
800 to 1500m
200 to 500 ft
< 800m
< 200 ft
Symbols :   Thunderstorms  Fog  Heavy snow  Heavy precipitations  Wind > 20 kt






- Airport Elevation : 2996 ft


KMUO - Mountain Home Air Force Base

CURRENT METAR :
  • 301858Z AUTO 17006KT 10SM CLR 27/M01 A3002 RMK AO2 RAB02E03RAB04E07DZB07E12 SLP145 P0000 T02721008 $

EXPIRED METARs :
  • 301812Z AUTO 18007KT 10SM FEW190 26/01 A3004 RMK AO2 RAB02E03RAB04E07DZB07E12 SLP152 $
  • 301804Z AUTO 13007KT 10SM -RA FEW200 26/01 A3004 RMK AO2 RAB02E03RAB04 SLP151 $
  • 301758Z AUTO 13007KT 10SM CLR 26/01 A3004 RMK AO2 SLP152 T02590005 10259 20098 58004 $
  • 301658Z AUTO 00000KT 10SM CLR 23/01 A3006 RMK AO2 SLP159 T02280012 $

TAF TAF KMUO
Valid from the 30 at 02:00 until the 01 at 08:00 UTC


300200Z 3002/0108 33012G20KT 9999 FEW060 FEW120 QNH2995INS
TEMPO 3002/3003 33015G26KT 510009
BECMG 3003/3004 VRB06KT 9999 FEW100 FEW190 QNH2996INS
BECMG 0102/0103 34012KT 9999 FEW060 SCT120 SCT190 QNH2990INS TX30/3023Z TN14/3013Z LAST NO AMDS AFT 3003 NEXT 0510
KZLC FIR / North America



MET'MAP, your aeronautical weather chart ! - Copyright ORBIFLY December 2007 - Disclaimer

ORBIFLY MET'MAP TEAM :

Programming & Development : Alexandra Zaïnal
Original concept : Baudouin d'Aumeries
Technical & hardware support : Manuel Goepfert
Assistance : Marc-Olivier Méhu




SOURCES & CREDITS :

   NOAA       Earth
Advisory